ERU58 KPRC-P14
Flight info
| Callsign | ERU58 |
|---|---|
| Flight time | 1h 6m |
| Altitude | 10500 |
| Route | 3435N11229W 3448N11211W 3441N11145W 3444N11114W 3451N11037W |
| Aircraft | C172/L-SFG/C |
Departure
| Time | 2026-05-09 04:04 |
|---|---|
| Airport | Prescott Regional Airport - Ernest A. Love Field (KPRC) |
Arrival
| Time | 2026-05-09 05:11 |
|---|---|
| Airport | Holbrook Municipal Airport (P14) |
| Time | Latitude | Longitude | Altitude | Speed | Heading |
|---|---|---|---|---|---|
| 2026-05-09 04:02 | 34.66156 | -112.41054 | 4959 ft | 0 kts | 307° |
| 2026-05-09 04:02 | 34.66159 | -112.41059 | 4950 ft | 7 kts | 308° |
| 2026-05-09 04:02 | 34.66189 | -112.41166 | 4960 ft | 5 kts | 211° |
| 2026-05-09 04:02 | 34.66143 | -112.41217 | 4962 ft | 25 kts | 221° |
| 2026-05-09 04:03 | 34.65929 | -112.41442 | 4978 ft | 55 kts | 221° |
| 2026-05-09 04:03 | 34.65605 | -112.41788 | 5022 ft | 68 kts | 224° |
| 2026-05-09 04:03 | 34.65243 | -112.42179 | 5144 ft | 69 kts | 223° |
| 2026-05-09 04:03 | 34.64891 | -112.42566 | 5271 ft | 70 kts | 224° |
| 2026-05-09 04:04 | 34.64529 | -112.42959 | 5427 ft | 70 kts | 223° |
| 2026-05-09 04:04 | 34.64159 | -112.43367 | 5571 ft | 71 kts | 220° |
| 2026-05-09 04:04 | 34.63767 | -112.43757 | 5580 ft | 75 kts | 221° |
| 2026-05-09 04:04 | 34.63337 | -112.44129 | 5722 ft | 76 kts | 220° |
| 2026-05-09 04:05 | 34.62923 | -112.44518 | 5849 ft | 73 kts | 220° |
| 2026-05-09 04:05 | 34.62486 | -112.44896 | 5937 ft | 81 kts | 222° |
| 2026-05-09 04:05 | 34.62027 | -112.45280 | 6098 ft | 81 kts | 217° |
| 2026-05-09 04:05 | 34.61440 | -112.45115 | 6175 ft | 109 kts | 137° |
| 2026-05-09 04:06 | 34.61303 | -112.44178 | 6274 ft | 116 kts | 85° |
| 2026-05-09 04:06 | 34.61315 | -112.43216 | 6450 ft | 116 kts | 87° |
| 2026-05-09 04:06 | 34.61325 | -112.42209 | 6592 ft | 119 kts | 88° |
| 2026-05-09 04:06 | 34.61620 | -112.41392 | 6739 ft | 101 kts | 21° |
| 2026-05-09 04:07 | 34.62230 | -112.40994 | 6878 ft | 101 kts | 17° |
| 2026-05-09 04:07 | 34.62839 | -112.40545 | 7015 ft | 102 kts | 19° |
| 2026-05-09 04:07 | 34.63424 | -112.40085 | 7178 ft | 101 kts | 22° |
| 2026-05-09 04:07 | 34.64057 | -112.39800 | 7274 ft | 94 kts | 354° |
| 2026-05-09 04:08 | 34.64675 | -112.39468 | 7412 ft | 108 kts | 34° |
| 2026-05-09 04:08 | 34.65174 | -112.38815 | 7604 ft | 103 kts | 34° |
| 2026-05-09 04:08 | 34.65669 | -112.38179 | 7688 ft | 105 kts | 37° |
| 2026-05-09 04:08 | 34.66163 | -112.37518 | 7750 ft | 106 kts | 39° |
| 2026-05-09 04:09 | 34.66651 | -112.36848 | 7847 ft | 105 kts | 38° |
| 2026-05-09 04:09 | 34.67123 | -112.36201 | 7966 ft | 102 kts | 38° |
| 2026-05-09 04:09 | 34.67593 | -112.35551 | 8047 ft | 103 kts | 38° |
| 2026-05-09 04:09 | 34.68070 | -112.34888 | 8100 ft | 104 kts | 37° |
| 2026-05-09 04:10 | 34.68547 | -112.34230 | 8192 ft | 104 kts | 35° |
| 2026-05-09 04:10 | 34.69026 | -112.33571 | 8286 ft | 105 kts | 37° |
| 2026-05-09 04:10 | 34.69506 | -112.32906 | 8394 ft | 103 kts | 37° |
| 2026-05-09 04:10 | 34.69976 | -112.32255 | 8498 ft | 102 kts | 36° |
| 2026-05-09 04:11 | 34.70443 | -112.31604 | 8561 ft | 103 kts | 36° |
| 2026-05-09 04:11 | 34.70922 | -112.30942 | 8660 ft | 104 kts | 37° |
| 2026-05-09 04:11 | 34.71398 | -112.30285 | 8756 ft | 103 kts | 37° |
| 2026-05-09 04:11 | 34.71854 | -112.29650 | 8902 ft | 100 kts | 37° |
| 2026-05-09 04:12 | 34.72313 | -112.29014 | 8998 ft | 100 kts | 37° |
| 2026-05-09 04:12 | 34.72786 | -112.28364 | 9080 ft | 102 kts | 38° |
| 2026-05-09 04:12 | 34.73241 | -112.27728 | 9179 ft | 101 kts | 37° |
| 2026-05-09 04:12 | 34.73702 | -112.27085 | 9297 ft | 101 kts | 37° |
| 2026-05-09 04:13 | 34.74165 | -112.26443 | 9399 ft | 101 kts | 37° |
| 2026-05-09 04:13 | 34.74631 | -112.25803 | 9533 ft | 101 kts | 37° |
| 2026-05-09 04:13 | 34.75091 | -112.25161 | 9665 ft | 100 kts | 39° |
| 2026-05-09 04:13 | 34.75548 | -112.24527 | 9779 ft | 100 kts | 38° |
| 2026-05-09 04:14 | 34.76010 | -112.23889 | 9907 ft | 100 kts | 37° |
| 2026-05-09 04:14 | 34.76465 | -112.23253 | 10032 ft | 100 kts | 37° |
| 2026-05-09 04:14 | 34.76923 | -112.22615 | 10139 ft | 100 kts | 38° |
| 2026-05-09 04:14 | 34.77382 | -112.21976 | 10237 ft | 100 kts | 38° |
| 2026-05-09 04:15 | 34.77843 | -112.21341 | 10389 ft | 98 kts | 37° |
| 2026-05-09 04:15 | 34.78320 | -112.20682 | 10409 ft | 110 kts | 37° |
| 2026-05-09 04:15 | 34.78841 | -112.19958 | 10415 ft | 117 kts | 39° |
| 2026-05-09 04:15 | 34.79385 | -112.19194 | 10406 ft | 121 kts | 39° |
| 2026-05-09 04:16 | 34.79750 | -112.18233 | 10389 ft | 132 kts | 73° |
| 2026-05-09 04:16 | 34.79690 | -112.17112 | 10386 ft | 138 kts | 102° |
| 2026-05-09 04:16 | 34.79373 | -112.15991 | 10381 ft | 141 kts | 104° |
| 2026-05-09 04:16 | 34.79074 | -112.14874 | 10378 ft | 138 kts | 103° |
| 2026-05-09 04:17 | 34.78776 | -112.13754 | 10356 ft | 139 kts | 103° |
| 2026-05-09 04:17 | 34.78483 | -112.12649 | 10361 ft | 136 kts | 103° |
| 2026-05-09 04:17 | 34.78189 | -112.11560 | 10344 ft | 134 kts | 104° |
| 2026-05-09 04:17 | 34.77906 | -112.10509 | 10361 ft | 128 kts | 103° |
| 2026-05-09 04:18 | 34.77632 | -112.09478 | 10370 ft | 129 kts | 103° |
| 2026-05-09 04:18 | 34.77353 | -112.08437 | 10373 ft | 129 kts | 103° |
| 2026-05-09 04:18 | 34.77076 | -112.07405 | 10373 ft | 128 kts | 103° |
| 2026-05-09 04:18 | 34.76803 | -112.06386 | 10379 ft | 129 kts | 103° |
| 2026-05-09 04:19 | 34.76526 | -112.05352 | 10388 ft | 129 kts | 103° |
| 2026-05-09 04:19 | 34.76248 | -112.04313 | 10391 ft | 129 kts | 103° |
| 2026-05-09 04:19 | 34.75970 | -112.03280 | 10398 ft | 128 kts | 103° |
| 2026-05-09 04:19 | 34.75691 | -112.02248 | 10406 ft | 129 kts | 103° |
| 2026-05-09 04:20 | 34.75412 | -112.01205 | 10412 ft | 130 kts | 104° |
| 2026-05-09 04:20 | 34.75134 | -112.00173 | 10410 ft | 127 kts | 103° |
| 2026-05-09 04:20 | 34.74861 | -111.99154 | 10406 ft | 127 kts | 104° |
| 2026-05-09 04:20 | 34.74587 | -111.98140 | 10425 ft | 126 kts | 103° |
| 2026-05-09 04:21 | 34.74314 | -111.97124 | 10427 ft | 126 kts | 103° |
| 2026-05-09 04:21 | 34.74041 | -111.96112 | 10427 ft | 125 kts | 104° |
| 2026-05-09 04:21 | 34.73507 | -111.94127 | 10436 ft | 122 kts | 104° |
| 2026-05-09 04:22 | 34.73243 | -111.93149 | 10445 ft | 122 kts | 104° |
| 2026-05-09 04:22 | 34.72977 | -111.92165 | 10447 ft | 123 kts | 104° |
| 2026-05-09 04:22 | 34.72710 | -111.91171 | 10454 ft | 124 kts | 104° |
| 2026-05-09 04:22 | 34.72447 | -111.90189 | 10448 ft | 124 kts | 105° |
| 2026-05-09 04:23 | 34.72177 | -111.89194 | 10454 ft | 124 kts | 104° |
| 2026-05-09 04:23 | 34.71909 | -111.88205 | 10452 ft | 122 kts | 104° |
| 2026-05-09 04:23 | 34.71644 | -111.87224 | 10456 ft | 122 kts | 105° |
| 2026-05-09 04:23 | 34.71382 | -111.86248 | 10459 ft | 122 kts | 105° |
| 2026-05-09 04:24 | 34.71115 | -111.85269 | 10455 ft | 122 kts | 105° |
| 2026-05-09 04:24 | 34.70853 | -111.84292 | 10457 ft | 121 kts | 104° |
| 2026-05-09 04:24 | 34.70591 | -111.83328 | 10458 ft | 119 kts | 105° |
| 2026-05-09 04:24 | 34.70335 | -111.82382 | 10454 ft | 117 kts | 105° |
| 2026-05-09 04:25 | 34.70081 | -111.81439 | 10454 ft | 118 kts | 105° |
| 2026-05-09 04:25 | 34.69823 | -111.80489 | 10455 ft | 118 kts | 104° |
| 2026-05-09 04:25 | 34.69566 | -111.79538 | 10449 ft | 118 kts | 105° |
| 2026-05-09 04:25 | 34.69308 | -111.78589 | 10458 ft | 118 kts | 104° |
| 2026-05-09 04:26 | 34.69053 | -111.77647 | 10454 ft | 120 kts | 105° |
| 2026-05-09 04:26 | 34.68791 | -111.76683 | 10456 ft | 120 kts | 105° |
| 2026-05-09 04:26 | 34.68529 | -111.75718 | 10446 ft | 119 kts | 105° |
| 2026-05-09 04:26 | 34.68351 | -111.74749 | 10447 ft | 116 kts | 82° |
| 2026-05-09 04:27 | 34.68462 | -111.73785 | 10442 ft | 116 kts | 78° |
| 2026-05-09 04:27 | 34.68552 | -111.72820 | 10446 ft | 114 kts | 78° |
| 2026-05-09 04:27 | 34.68615 | -111.72188 | 10452 ft | 114 kts | 78° |
| 2026-05-09 04:27 | 34.68711 | -111.71214 | 10452 ft | 118 kts | 78° |
| 2026-05-09 04:28 | 34.68811 | -111.70199 | 10448 ft | 122 kts | 78° |
| 2026-05-09 04:28 | 34.68947 | -111.68824 | 10449 ft | 125 kts | 78° |
| 2026-05-09 04:28 | 34.69048 | -111.67763 | 10442 ft | 129 kts | 79° |
| 2026-05-09 04:28 | 34.69118 | -111.67028 | 10434 ft | 130 kts | 79° |
| 2026-05-09 04:29 | 34.69225 | -111.65958 | 10434 ft | 127 kts | 78° |
| 2026-05-09 04:29 | 34.69332 | -111.64886 | 10438 ft | 129 kts | 79° |
| 2026-05-09 04:29 | 34.69438 | -111.63816 | 10435 ft | 127 kts | 78° |
| 2026-05-09 04:29 | 34.69540 | -111.62761 | 10421 ft | 127 kts | 78° |
| 2026-05-09 04:30 | 34.69641 | -111.61714 | 10423 ft | 125 kts | 78° |
| 2026-05-09 04:30 | 34.69743 | -111.60679 | 10412 ft | 120 kts | 79° |
| 2026-05-09 04:30 | 34.69845 | -111.59668 | 10417 ft | 123 kts | 79° |
| 2026-05-09 04:30 | 34.69945 | -111.58626 | 10404 ft | 122 kts | 79° |
| 2026-05-09 04:31 | 34.70044 | -111.57591 | 10414 ft | 125 kts | 79° |
| 2026-05-09 04:31 | 34.70142 | -111.56546 | 10412 ft | 123 kts | 79° |
| 2026-05-09 04:31 | 34.70249 | -111.55492 | 10413 ft | 127 kts | 79° |
| 2026-05-09 04:31 | 34.70355 | -111.54407 | 10410 ft | 130 kts | 79° |
| 2026-05-09 04:32 | 34.70462 | -111.53294 | 10390 ft | 134 kts | 80° |
| 2026-05-09 04:32 | 34.70566 | -111.52206 | 10390 ft | 127 kts | 78° |
| 2026-05-09 04:32 | 34.70676 | -111.51125 | 10397 ft | 133 kts | 79° |
| 2026-05-09 04:32 | 34.70790 | -111.49989 | 10398 ft | 138 kts | 80° |
| 2026-05-09 04:33 | 34.70895 | -111.48852 | 10376 ft | 133 kts | 80° |
| 2026-05-09 04:33 | 34.71000 | -111.47722 | 10372 ft | 129 kts | 79° |
| 2026-05-09 04:33 | 34.71101 | -111.46684 | 10370 ft | 121 kts | 79° |
| 2026-05-09 04:33 | 34.71200 | -111.45675 | 10381 ft | 121 kts | 79° |
| 2026-05-09 04:34 | 34.71300 | -111.44620 | 10357 ft | 125 kts | 80° |
| 2026-05-09 04:34 | 34.71398 | -111.43592 | 10366 ft | 121 kts | 79° |
| 2026-05-09 04:34 | 34.71499 | -111.42562 | 10361 ft | 123 kts | 79° |
| 2026-05-09 04:34 | 34.71600 | -111.41511 | 10350 ft | 122 kts | 79° |
| 2026-05-09 04:35 | 34.71699 | -111.40511 | 10356 ft | 118 kts | 78° |
| 2026-05-09 04:35 | 34.71802 | -111.39478 | 10363 ft | 128 kts | 80° |
| 2026-05-09 04:35 | 34.71902 | -111.38364 | 10355 ft | 137 kts | 78° |
| 2026-05-09 04:35 | 34.72012 | -111.37207 | 10351 ft | 137 kts | 79° |
| 2026-05-09 04:36 | 34.72119 | -111.36069 | 10338 ft | 131 kts | 80° |
| 2026-05-09 04:36 | 34.72221 | -111.35016 | 10354 ft | 126 kts | 78° |
| 2026-05-09 04:36 | 34.72328 | -111.33946 | 10348 ft | 125 kts | 80° |
| 2026-05-09 04:36 | 34.72428 | -111.32885 | 10356 ft | 124 kts | 79° |
| 2026-05-09 04:37 | 34.72529 | -111.31832 | 10356 ft | 127 kts | 79° |
| 2026-05-09 04:37 | 34.72632 | -111.30755 | 10362 ft | 130 kts | 79° |
| 2026-05-09 04:37 | 34.72738 | -111.29668 | 10356 ft | 133 kts | 80° |
| 2026-05-09 04:37 | 34.72832 | -111.28572 | 10362 ft | 127 kts | 79° |
| 2026-05-09 04:38 | 34.72944 | -111.27475 | 10339 ft | 130 kts | 79° |
| 2026-05-09 04:38 | 34.73048 | -111.26375 | 10350 ft | 132 kts | 79° |
| 2026-05-09 04:38 | 34.73152 | -111.25270 | 10351 ft | 131 kts | 79° |
| 2026-05-09 04:38 | 34.73257 | -111.24168 | 10342 ft | 130 kts | 79° |
| 2026-05-09 04:39 | 34.73374 | -111.23106 | 10350 ft | 123 kts | 72° |
| 2026-05-09 04:39 | 34.73579 | -111.22098 | 10342 ft | 123 kts | 72° |
| 2026-05-09 04:39 | 34.73765 | -111.21099 | 10341 ft | 120 kts | 72° |
| 2026-05-09 04:39 | 34.73953 | -111.20110 | 10340 ft | 119 kts | 71° |
| 2026-05-09 04:40 | 34.74142 | -111.19132 | 10345 ft | 118 kts | 71° |
| 2026-05-09 04:40 | 34.74327 | -111.18168 | 10342 ft | 118 kts | 71° |
| 2026-05-09 04:40 | 34.74512 | -111.17197 | 10341 ft | 118 kts | 71° |
| 2026-05-09 04:40 | 34.74696 | -111.16238 | 10342 ft | 114 kts | 70° |
| 2026-05-09 04:41 | 34.74876 | -111.15287 | 10341 ft | 116 kts | 71° |
| 2026-05-09 04:41 | 34.75060 | -111.14331 | 10344 ft | 117 kts | 71° |
| 2026-05-09 04:41 | 34.75245 | -111.13359 | 10348 ft | 120 kts | 70° |
| 2026-05-09 04:41 | 34.75434 | -111.12363 | 10346 ft | 118 kts | 70° |
| 2026-05-09 04:42 | 34.75626 | -111.11371 | 10347 ft | 121 kts | 71° |
| 2026-05-09 04:42 | 34.75817 | -111.10370 | 10351 ft | 121 kts | 71° |
| 2026-05-09 04:42 | 34.76004 | -111.09390 | 10348 ft | 120 kts | 71° |
| 2026-05-09 04:42 | 34.76194 | -111.08397 | 10344 ft | 120 kts | 71° |
| 2026-05-09 04:43 | 34.76380 | -111.07411 | 10343 ft | 120 kts | 70° |
| 2026-05-09 04:43 | 34.76568 | -111.06424 | 10339 ft | 120 kts | 70° |
| 2026-05-09 04:43 | 34.76759 | -111.05428 | 10348 ft | 122 kts | 71° |
| 2026-05-09 04:43 | 34.76950 | -111.04419 | 10347 ft | 123 kts | 71° |
| 2026-05-09 04:44 | 34.77139 | -111.03409 | 10345 ft | 121 kts | 71° |
| 2026-05-09 04:44 | 34.77331 | -111.02407 | 10346 ft | 121 kts | 70° |
| 2026-05-09 04:44 | 34.77525 | -111.01400 | 10354 ft | 122 kts | 71° |
| 2026-05-09 04:44 | 34.77715 | -111.00391 | 10352 ft | 122 kts | 71° |
| 2026-05-09 04:45 | 34.77904 | -110.99397 | 10356 ft | 119 kts | 71° |
| 2026-05-09 04:45 | 34.78090 | -110.98430 | 10360 ft | 118 kts | 71° |
| 2026-05-09 04:45 | 34.78271 | -110.97459 | 10354 ft | 116 kts | 71° |
| 2026-05-09 04:45 | 34.78452 | -110.96508 | 10363 ft | 115 kts | 71° |
| 2026-05-09 04:46 | 34.78634 | -110.95555 | 10365 ft | 116 kts | 71° |
| 2026-05-09 04:46 | 34.78816 | -110.94602 | 10365 ft | 115 kts | 71° |
| 2026-05-09 04:46 | 34.78995 | -110.93653 | 10371 ft | 114 kts | 71° |
| 2026-05-09 04:46 | 34.79184 | -110.92661 | 10265 ft | 126 kts | 72° |
| 2026-05-09 04:47 | 34.79384 | -110.91599 | 10157 ft | 131 kts | 72° |
| 2026-05-09 04:47 | 34.79588 | -110.90502 | 10045 ft | 135 kts | 73° |
| 2026-05-09 04:47 | 34.79794 | -110.89399 | 9946 ft | 132 kts | 72° |
| 2026-05-09 04:47 | 34.80003 | -110.88309 | 9823 ft | 135 kts | 72° |
| 2026-05-09 04:48 | 34.80215 | -110.87193 | 9698 ft | 135 kts | 73° |
| 2026-05-09 04:48 | 34.80423 | -110.86084 | 9577 ft | 134 kts | 74° |
| 2026-05-09 04:48 | 34.80630 | -110.84987 | 9450 ft | 131 kts | 73° |
| 2026-05-09 04:48 | 34.80832 | -110.83918 | 9325 ft | 128 kts | 74° |
| 2026-05-09 04:49 | 34.81028 | -110.82865 | 9200 ft | 126 kts | 73° |
| 2026-05-09 04:49 | 34.81224 | -110.81825 | 9075 ft | 125 kts | 73° |
| 2026-05-09 04:49 | 34.81419 | -110.80794 | 8955 ft | 124 kts | 74° |
| 2026-05-09 04:49 | 34.81613 | -110.79765 | 8836 ft | 126 kts | 74° |
| 2026-05-09 04:50 | 34.81811 | -110.78717 | 8720 ft | 129 kts | 74° |
| 2026-05-09 04:50 | 34.82014 | -110.77664 | 8591 ft | 127 kts | 76° |
| 2026-05-09 04:50 | 34.82204 | -110.76622 | 8473 ft | 127 kts | 76° |
| 2026-05-09 04:50 | 34.82399 | -110.75572 | 8355 ft | 128 kts | 74° |
| 2026-05-09 04:51 | 34.82598 | -110.74512 | 8237 ft | 129 kts | 75° |
| 2026-05-09 04:51 | 34.82798 | -110.73445 | 8112 ft | 129 kts | 75° |
| 2026-05-09 04:51 | 34.82997 | -110.72386 | 7995 ft | 127 kts | 74° |
| 2026-05-09 04:51 | 34.83193 | -110.71344 | 7874 ft | 126 kts | 75° |
| 2026-05-09 04:52 | 34.83383 | -110.70325 | 7747 ft | 123 kts | 76° |
| 2026-05-09 04:52 | 34.83574 | -110.69307 | 7632 ft | 124 kts | 75° |
| 2026-05-09 04:52 | 34.83764 | -110.68292 | 7520 ft | 123 kts | 75° |
| 2026-05-09 04:52 | 34.83951 | -110.67276 | 7443 ft | 119 kts | 75° |
| 2026-05-09 04:53 | 34.84130 | -110.66317 | 7450 ft | 114 kts | 75° |
| 2026-05-09 04:53 | 34.84309 | -110.65380 | 7446 ft | 115 kts | 75° |
| 2026-05-09 04:53 | 34.84491 | -110.64415 | 7450 ft | 119 kts | 75° |
| 2026-05-09 04:53 | 34.84676 | -110.63406 | 7445 ft | 124 kts | 75° |
| 2026-05-09 04:54 | 34.84866 | -110.62393 | 7439 ft | 121 kts | 75° |
| 2026-05-09 04:54 | 34.85051 | -110.61401 | 7441 ft | 120 kts | 76° |
| 2026-05-09 04:54 | 34.85237 | -110.60422 | 7439 ft | 120 kts | 75° |
| 2026-05-09 04:54 | 34.85431 | -110.59427 | 7436 ft | 120 kts | 75° |
| 2026-05-09 04:55 | 34.85622 | -110.58430 | 7432 ft | 121 kts | 76° |
| 2026-05-09 04:55 | 34.85816 | -110.57430 | 7438 ft | 122 kts | 75° |
| 2026-05-09 04:55 | 34.86010 | -110.56422 | 7434 ft | 123 kts | 75° |
| 2026-05-09 04:55 | 34.86208 | -110.55382 | 7353 ft | 130 kts | 75° |
| 2026-05-09 04:56 | 34.86414 | -110.54288 | 7255 ft | 133 kts | 75° |
| 2026-05-09 04:56 | 34.86622 | -110.53201 | 7156 ft | 131 kts | 75° |
| 2026-05-09 04:56 | 34.86825 | -110.52136 | 7065 ft | 130 kts | 75° |
| 2026-05-09 04:56 | 34.87031 | -110.51063 | 6970 ft | 131 kts | 75° |
| 2026-05-09 04:57 | 34.87239 | -110.49970 | 6863 ft | 132 kts | 76° |
| 2026-05-09 04:57 | 34.87448 | -110.48876 | 6775 ft | 133 kts | 76° |
| 2026-05-09 04:57 | 34.87660 | -110.47771 | 6671 ft | 133 kts | 76° |
| 2026-05-09 04:57 | 34.87869 | -110.46679 | 6573 ft | 132 kts | 76° |
| 2026-05-09 04:58 | 34.88074 | -110.45591 | 6484 ft | 131 kts | 76° |
| 2026-05-09 04:58 | 34.88282 | -110.44498 | 6380 ft | 133 kts | 75° |
| 2026-05-09 04:58 | 34.88490 | -110.43409 | 6285 ft | 131 kts | 76° |
| 2026-05-09 04:58 | 34.88695 | -110.42330 | 6197 ft | 130 kts | 76° |
| 2026-05-09 04:59 | 34.88900 | -110.41256 | 6111 ft | 131 kts | 76° |
| 2026-05-09 04:59 | 34.89104 | -110.40182 | 6072 ft | 128 kts | 77° |
| 2026-05-09 04:59 | 34.89299 | -110.39157 | 6066 ft | 124 kts | 76° |
| 2026-05-09 04:59 | 34.89491 | -110.38144 | 6054 ft | 119 kts | 76° |
| 2026-05-09 05:00 | 34.89818 | -110.37259 | 6061 ft | 112 kts | 49° |
| 2026-05-09 05:00 | 34.90353 | -110.36604 | 6108 ft | 109 kts | 42° |
| 2026-05-09 05:00 | 34.90907 | -110.35965 | 6116 ft | 112 kts | 42° |
| 2026-05-09 05:00 | 34.91482 | -110.35282 | 6083 ft | 116 kts | 43° |
| 2026-05-09 05:01 | 34.92039 | -110.34582 | 6075 ft | 115 kts | 43° |
| 2026-05-09 05:01 | 34.92621 | -110.33900 | 6030 ft | 116 kts | 42° |
| 2026-05-09 05:01 | 34.93185 | -110.33222 | 6033 ft | 112 kts | 42° |
| 2026-05-09 05:01 | 34.93744 | -110.32561 | 6019 ft | 112 kts | 39° |
| 2026-05-09 05:02 | 34.94319 | -110.31942 | 6076 ft | 109 kts | 39° |
| 2026-05-09 05:02 | 34.94886 | -110.31343 | 6106 ft | 108 kts | 40° |
| 2026-05-09 05:02 | 34.95449 | -110.30693 | 6103 ft | 113 kts | 41° |
| 2026-05-09 05:02 | 34.96037 | -110.30011 | 6081 ft | 120 kts | 41° |
| 2026-05-09 05:03 | 34.96643 | -110.29299 | 6045 ft | 124 kts | 43° |
| 2026-05-09 05:03 | 34.97262 | -110.28554 | 6005 ft | 126 kts | 42° |
| 2026-05-09 05:03 | 34.97886 | -110.27830 | 6021 ft | 122 kts | 42° |
| 2026-05-09 05:03 | 34.98486 | -110.27107 | 6040 ft | 121 kts | 43° |
| 2026-05-09 05:04 | 34.99075 | -110.26373 | 6043 ft | 123 kts | 44° |
| 2026-05-09 05:04 | 34.99670 | -110.25616 | 6013 ft | 126 kts | 44° |
| 2026-05-09 05:04 | 35.00272 | -110.24846 | 5981 ft | 126 kts | 45° |
| 2026-05-09 05:04 | 35.00691 | -110.23990 | 6051 ft | 117 kts | 82° |
| 2026-05-09 05:05 | 35.00454 | -110.23045 | 6067 ft | 119 kts | 130° |
| 2026-05-09 05:05 | 34.99793 | -110.22512 | 6091 ft | 118 kts | 149° |
| 2026-05-09 05:05 | 34.99165 | -110.21852 | 6064 ft | 119 kts | 135° |
| 2026-05-09 05:05 | 34.98601 | -110.21109 | 5979 ft | 118 kts | 134° |
| 2026-05-09 05:06 | 34.98395 | -110.20836 | 5972 ft | 117 kts | 134° |
| 2026-05-09 05:06 | 34.98338 | -110.20761 | 5967 ft | 117 kts | 134° |
| 2026-05-09 05:07 | 34.98009 | -110.20332 | 5947 ft | 116 kts | 134° |
| 2026-05-09 05:07 | 34.97554 | -110.19575 | 5992 ft | 109 kts | 130° |
| 2026-05-09 05:07 | 34.97080 | -110.18853 | 5960 ft | 109 kts | 126° |
| 2026-05-09 05:07 | 34.96651 | -110.18091 | 5963 ft | 107 kts | 127° |
| 2026-05-09 05:08 | 34.96244 | -110.17318 | 6006 ft | 109 kts | 124° |
| 2026-05-09 05:08 | 34.95822 | -110.16531 | 5968 ft | 112 kts | 124° |
| 2026-05-09 05:08 | 34.95371 | -110.15764 | 5968 ft | 110 kts | 141° |
| 2026-05-09 05:08 | 34.94707 | -110.15373 | 5993 ft | 103 kts | 181° |
| 2026-05-09 05:09 | 34.94107 | -110.15703 | 5963 ft | 93 kts | 220° |
| 2026-05-09 05:09 | 34.93642 | -110.16150 | 5898 ft | 85 kts | 223° |
| 2026-05-09 05:09 | 34.93194 | -110.16621 | 5805 ft | 83 kts | 222° |
| 2026-05-09 05:09 | 34.92681 | -110.16609 | 5790 ft | 83 kts | 140° |
| 2026-05-09 05:10 | 34.92387 | -110.16011 | 5735 ft | 86 kts | 97° |
| 2026-05-09 05:10 | 34.92615 | -110.15332 | 5662 ft | 87 kts | 46° |
| 2026-05-09 05:10 | 34.93067 | -110.14868 | 5461 ft | 83 kts | 37° |
| 2026-05-09 05:10 | 34.93515 | -110.14425 | 5302 ft | 83 kts | 38° |
| 2026-05-09 05:11 | 34.93926 | -110.14011 | 5242 ft | 64 kts | 39° |
| 2026-05-09 05:11 | 34.94208 | -110.13730 | 5248 ft | 45 kts | 40° |
| 2026-05-09 05:11 | 34.94414 | -110.13528 | 5251 ft | 31 kts | 40° |
| 2026-05-09 05:11 | 34.94487 | -110.13421 | 5252 ft | 8 kts | 103° |
| 2026-05-09 05:12 | 34.94441 | -110.13409 | 5255 ft | 11 kts | 216° |
| 2026-05-09 05:12 | 34.94373 | -110.13479 | 5253 ft | 15 kts | 220° |
| 2026-05-09 05:12 | 34.94278 | -110.13574 | 5252 ft | 21 kts | 222° |
| 2026-05-09 05:12 | 34.94145 | -110.13709 | 5250 ft | 27 kts | 220° |
| 2026-05-09 05:13 | 34.94008 | -110.13846 | 5246 ft | 24 kts | 220° |
| 2026-05-09 05:13 | 34.93892 | -110.13962 | 5243 ft | 20 kts | 219° |
| 2026-05-09 05:13 | 34.93773 | -110.14082 | 5240 ft | 24 kts | 221° |
| 2026-05-09 05:13 | 34.93654 | -110.14203 | 5238 ft | 19 kts | 219° |
| 2026-05-09 05:14 | 34.93599 | -110.14227 | 5237 ft | 6 kts | 143° |
| 2026-05-09 05:14 | 34.93559 | -110.14226 | 5237 ft | 9 kts | 205° |
| 2026-05-09 05:14 | 34.93549 | -110.14268 | 5236 ft | 0 kts | 302° |